createdAt,value
2019-05-12T00:00:48.579Z,9.27
2019-05-12T00:03:18.886Z,11.33
2019-05-12T00:05:48.385Z,8.57
2019-05-12T00:08:18.864Z,12.10
2019-05-12T00:10:48.365Z,8.07
2019-05-12T00:13:18.993Z,8.93
2019-05-12T00:15:48.191Z,9.07
2019-05-12T00:18:18.181Z,6.53
2019-05-12T00:20:47.651Z,6.30
2019-05-12T00:23:26.715Z,9.33
2019-05-12T00:25:48.096Z,7.93
2019-05-12T00:28:17.888Z,8.47
2019-05-12T00:30:49.912Z,10.50
2019-05-12T00:33:18.937Z,10.27
2019-05-12T00:35:48.457Z,9.87
2019-05-12T00:38:17.910Z,8.33
2019-05-12T00:40:47.903Z,7.37
2019-05-12T00:43:18.829Z,5.50
2019-05-12T00:45:48.293Z,7.50
2019-05-12T00:48:17.990Z,10.57
2019-05-12T00:50:48.585Z,7.70
2019-05-12T00:53:18.862Z,9.33
2019-05-12T00:55:48.847Z,5.70
2019-05-12T00:58:19.410Z,7.17
2019-05-12T01:00:48.785Z,5.67
2019-05-12T01:03:18.918Z,5.97
2019-05-12T01:05:48.640Z,6.83
2019-05-12T01:08:18.691Z,6.67
2019-05-12T01:10:48.283Z,8.70
2019-05-12T01:13:18.622Z,7.13
2019-05-12T01:15:48.192Z,8.90
2019-05-12T01:18:18.438Z,5.20
2019-05-12T01:20:48.063Z,7.40
2019-05-12T01:23:19.312Z,6.83
2019-05-12T01:25:50.909Z,8.10
2019-05-12T01:28:19.513Z,7.27
2019-05-12T01:30:48.533Z,7.40
2019-05-12T01:33:18.469Z,6.23
2019-05-12T01:35:48.423Z,9.77
2019-05-12T01:38:18.233Z,8.97
2019-05-12T01:40:48.050Z,7.13
2019-05-12T01:43:18.693Z,7.47
2019-05-12T01:45:48.389Z,6.17
2019-05-12T01:48:18.315Z,5.87
2019-05-12T01:50:48.047Z,7.47
2019-05-12T01:53:18.165Z,7.63
2019-05-12T01:55:48.541Z,10.83
2019-05-12T01:58:19.336Z,11.13
2019-05-12T02:00:49.042Z,6.17
2019-05-12T02:03:18.317Z,5.87
2019-05-12T02:05:50.247Z,7.17
2019-05-12T02:08:24.989Z,8.33
2019-05-12T02:11:13.035Z,6.30
2019-05-12T02:13:42.050Z,7.83
2019-05-12T02:16:11.108Z,10.27
2019-05-12T02:18:40.114Z,9.97
2019-05-12T02:21:10.119Z,8.93
2019-05-12T02:23:39.153Z,6.60
2019-05-12T02:26:08.375Z,6.50
2019-05-12T02:28:39.478Z,7.93
2019-05-12T02:31:10.690Z,5.73
2019-05-12T02:33:39.696Z,5.87
2019-05-12T02:36:10.167Z,15.87
2019-05-12T02:38:39.202Z,6.50
2019-05-12T02:41:08.397Z,5.80
2019-05-12T02:43:37.736Z,6.53
2019-05-12T02:46:06.800Z,8.23
2019-05-12T02:48:35.875Z,6.70
2019-05-12T02:51:05.826Z,12.47
2019-05-12T02:53:35.375Z,6.70
2019-05-12T02:56:05.273Z,11.20
2019-05-12T02:58:35.656Z,7.47
2019-05-12T03:01:05.595Z,7.30
2019-05-12T03:03:35.369Z,8.87
2019-05-12T03:06:05.368Z,7.20
2019-05-12T03:08:35.135Z,9.23
2019-05-12T03:11:06.067Z,7.93
2019-05-12T03:13:34.984Z,9.07
2019-05-12T03:16:04.785Z,8.73
2019-05-12T03:18:34.971Z,7.90
2019-05-12T03:21:05.679Z,7.93
2019-05-12T03:23:35.507Z,7.00
2019-05-12T03:26:05.313Z,9.13
2019-05-12T03:28:35.826Z,8.90
2019-05-12T03:31:07.736Z,9.67
2019-05-12T03:33:43.430Z,6.93
2019-05-12T03:36:09.939Z,9.67
2019-05-12T03:38:38.582Z,10.60
2019-05-12T03:41:07.615Z,9.53
2019-05-12T03:43:37.013Z,6.67
2019-05-12T03:46:06.047Z,7.30
2019-05-12T03:48:35.419Z,7.67
2019-05-12T03:51:05.748Z,7.37
2019-05-12T03:53:35.623Z,7.10
2019-05-12T03:56:04.811Z,8.03
2019-05-12T03:58:34.810Z,7.73
2019-05-12T04:01:04.918Z,6.57
2019-05-12T04:03:34.625Z,11.03
2019-05-12T04:06:04.929Z,9.57
2019-05-12T04:08:34.799Z,10.80
2019-05-12T04:11:05.432Z,8.10
2019-05-12T04:13:34.599Z,7.37
2019-05-12T04:16:04.902Z,10.23
2019-05-12T04:18:34.959Z,11.23
2019-05-12T04:21:05.471Z,9.60
2019-05-12T04:23:35.073Z,9.03
2019-05-12T04:26:10.932Z,8.77
2019-05-12T04:28:35.303Z,6.83
2019-05-12T04:31:05.398Z,8.00
2019-05-12T04:33:34.933Z,9.57
2019-05-12T04:36:05.548Z,8.63
2019-05-12T04:38:35.619Z,8.77
2019-05-12T04:41:05.993Z,10.33
2019-05-12T04:43:35.459Z,6.83
2019-05-12T04:46:05.267Z,8.53
2019-05-12T04:48:35.832Z,5.57
2019-05-12T04:51:05.917Z,11.93
2019-05-12T04:53:35.426Z,7.17
2019-05-12T04:56:15.298Z,7.03
2019-05-12T04:58:35.931Z,8.93
2019-05-12T05:01:06.335Z,8.73
2019-05-12T05:03:36.050Z,7.67
2019-05-12T05:06:05.798Z,8.43
2019-05-12T05:08:35.070Z,9.73
2019-05-12T05:11:04.261Z,8.53
2019-05-12T05:13:36.818Z,8.50
2019-05-12T05:16:05.447Z,8.63
2019-05-12T05:18:35.170Z,7.40
2019-05-12T05:21:04.818Z,8.23
2019-05-12T05:23:33.973Z,8.67
2019-05-12T05:26:03.356Z,9.80
2019-05-12T05:28:34.008Z,7.67
2019-05-12T05:31:03.672Z,10.33
2019-05-12T05:33:34.054Z,6.47
2019-05-12T05:36:03.530Z,6.17
2019-05-12T05:38:34.302Z,6.40
2019-05-12T05:41:05.920Z,8.77
2019-05-12T05:43:34.570Z,6.27
2019-05-12T05:46:07.772Z,11.20
2019-05-12T05:48:35.470Z,6.43
2019-05-12T05:51:07.818Z,7.00
2019-05-12T05:53:35.629Z,7.07
2019-05-12T05:56:05.236Z,8.17
2019-05-12T05:58:34.259Z,8.30
2019-05-12T06:01:07.779Z,5.37
2019-05-12T06:03:35.398Z,9.17
2019-05-12T06:06:10.743Z,5.73
2019-05-12T06:08:35.554Z,7.30
2019-05-12T06:11:08.272Z,5.10
2019-05-12T06:13:35.443Z,6.80
2019-05-12T06:16:04.840Z,6.43
2019-05-12T06:18:34.200Z,5.50
2019-05-12T06:21:03.586Z,5.93
2019-05-12T06:23:37.049Z,5.53
2019-05-12T06:26:04.753Z,3.53
2019-05-12T06:28:39.440Z,11.53
2019-05-12T06:31:05.146Z,4.63
2019-05-12T06:33:36.209Z,5.27
2019-05-12T06:36:07.423Z,4.00
2019-05-12T06:38:40.384Z,4.60
2019-05-12T06:41:12.669Z,4.60
2019-05-12T06:43:42.358Z,4.50
2019-05-12T06:46:11.833Z,6.93
2019-05-12T06:48:42.350Z,2.80
2019-05-12T06:51:17.063Z,5.07
2019-05-12T06:53:44.170Z,3.50
2019-05-12T06:56:15.449Z,3.33
2019-05-12T06:58:44.282Z,3.80
2019-05-12T07:01:19.098Z,3.40
2019-05-12T07:03:44.643Z,2.60
2019-05-12T07:06:17.523Z,3.27
2019-05-12T07:08:44.790Z,4.10
2019-05-12T07:11:14.430Z,1.70
2019-05-12T07:13:43.998Z,3.53
2019-05-12T07:16:19.100Z,3.33
2019-05-12T07:18:46.140Z,2.20
2019-05-12T07:21:19.710Z,2.90
2019-05-12T07:23:46.221Z,4.30
2019-05-12T07:26:19.471Z,3.13
2019-05-12T07:28:46.092Z,3.00
2019-05-12T07:31:15.359Z,1.90
2019-05-12T07:33:45.794Z,3.80
2019-05-12T07:36:15.551Z,2.00
2019-05-12T07:38:46.821Z,3.70
2019-05-12T07:41:16.172Z,2.63
2019-05-12T07:43:50.572Z,3.70
2019-05-12T07:46:18.191Z,3.80
2019-05-12T07:48:50.804Z,1.20
2019-05-12T07:51:18.771Z,2.40
2019-05-12T07:53:55.154Z,2.23
2019-05-12T07:56:26.031Z,1.63
2019-05-12T07:58:56.498Z,4.10
2019-05-12T08:01:23.464Z,1.30
2019-05-12T08:03:59.424Z,2.33
2019-05-12T08:06:24.409Z,2.77
2019-05-12T08:08:58.698Z,2.23
2019-05-12T08:11:28.824Z,3.17
2019-05-12T08:13:55.516Z,2.07
2019-05-12T08:16:28.640Z,1.70
2019-05-12T08:18:55.278Z,1.63
2019-05-12T08:21:24.674Z,2.93
2019-05-12T08:23:53.708Z,1.67
2019-05-12T08:26:23.944Z,2.17
2019-05-12T08:28:53.601Z,2.57
2019-05-12T08:31:31.969Z,1.47
2019-05-12T08:33:53.867Z,3.43
2019-05-12T08:36:23.685Z,2.10
2019-05-12T08:38:53.731Z,2.07
2019-05-12T08:41:23.534Z,2.10
2019-05-12T08:43:57.982Z,1.20
2019-05-12T08:46:24.292Z,2.60
2019-05-12T08:48:57.901Z,2.57
2019-05-12T08:51:25.078Z,3.50
2019-05-12T08:54:02.502Z,1.90
2019-05-12T08:56:26.243Z,3.00
2019-05-12T08:58:56.106Z,2.67
2019-05-12T09:01:30.483Z,2.63
2019-05-12T09:04:03.736Z,1.87
2019-05-12T09:06:27.612Z,2.20
2019-05-12T09:08:56.996Z,1.50
2019-05-12T09:11:26.009Z,3.03
2019-05-12T09:14:00.669Z,2.63
2019-05-12T09:16:26.824Z,3.07
2019-05-12T09:18:55.851Z,2.20
2019-05-12T09:21:31.544Z,2.50
2019-05-12T09:23:56.155Z,1.33
2019-05-12T09:26:28.462Z,1.53
2019-05-12T09:28:56.462Z,2.13
2019-05-12T09:31:29.471Z,1.13
2019-05-12T09:33:57.950Z,1.43
2019-05-12T09:36:27.460Z,2.40
2019-05-12T09:39:01.649Z,1.83
2019-05-12T09:41:27.710Z,0.87
2019-05-12T09:43:56.902Z,1.83
2019-05-12T09:46:28.265Z,2.23
2019-05-12T09:48:56.653Z,1.33
2019-05-12T09:51:26.052Z,3.60
2019-05-12T09:53:55.626Z,2.00
2019-05-12T09:56:24.778Z,2.00
2019-05-12T09:59:01.428Z,2.02
2019-05-12T10:01:29.184Z,3.37
2019-05-12T10:03:55.541Z,1.80
2019-05-12T10:06:25.654Z,1.80
2019-05-12T10:08:55.067Z,2.63
2019-05-12T10:11:24.156Z,2.73
2019-05-12T10:13:54.213Z,1.47
2019-05-12T10:16:24.199Z,1.47
2019-05-12T10:18:53.277Z,2.40
2019-05-12T10:21:23.760Z,1.73
2019-05-12T10:24:00.283Z,3.40
2019-05-12T10:26:23.768Z,2.75
2019-05-12T10:28:58.204Z,1.55
2019-05-12T10:31:29.473Z,2.87
2019-05-12T10:34:15.534Z,2.45
2019-05-12T10:36:49.194Z,3.13
2019-05-12T10:39:17.997Z,1.60
2019-05-12T10:41:47.924Z,5.63
2019-05-12T10:44:17.335Z,1.60
2019-05-12T10:46:48.626Z,2.30
2019-05-12T10:49:18.012Z,2.00
2019-05-12T10:51:47.704Z,2.83
2019-05-12T10:54:16.952Z,3.00
2019-05-12T10:56:46.001Z,3.33
2019-05-12T10:59:29.035Z,1.87
2019-05-12T11:01:49.051Z,4.53
2019-05-12T11:04:25.009Z,2.75
2019-05-12T11:06:48.867Z,3.27
2019-05-12T11:09:21.335Z,2.45
2019-05-12T11:11:48.748Z,2.63
2019-05-12T11:14:20.234Z,2.50
2019-05-12T11:16:49.716Z,2.85
2019-05-12T11:19:18.773Z,2.43
2019-05-12T11:21:47.808Z,2.37
2019-05-12T11:24:17.187Z,3.07
2019-05-12T11:26:46.183Z,3.10
2019-05-12T11:29:15.637Z,2.83
2019-05-12T11:31:44.674Z,3.87
2019-05-12T11:34:16.792Z,1.40
2019-05-12T11:36:45.804Z,2.43
2019-05-12T11:39:15.180Z,1.90
2019-05-12T11:41:44.499Z,2.87
2019-05-12T11:44:13.797Z,2.52
2019-05-12T11:46:44.168Z,2.80
2019-05-12T11:49:13.900Z,2.65
2019-05-12T11:51:43.021Z,2.55
2019-05-12T11:54:13.725Z,3.42
2019-05-12T11:56:46.460Z,3.67
2019-05-12T11:59:13.966Z,1.87
2019-05-12T12:01:47.534Z,1.87
2019-05-12T12:04:14.487Z,2.35
2019-05-12T12:06:43.958Z,1.90
2019-05-12T12:09:15.445Z,1.90
2019-05-12T12:11:43.820Z,2.10
2019-05-12T12:14:15.620Z,2.37
2019-05-12T12:16:50.153Z,1.27
2019-05-12T12:19:15.419Z,2.08
2019-05-12T12:21:46.191Z,2.55
2019-05-12T12:24:15.858Z,2.77
2019-05-12T12:26:44.897Z,4.35
2019-05-12T12:29:14.363Z,1.77
2019-05-12T12:31:53.665Z,2.42
2019-05-12T12:34:25.110Z,3.47
2019-05-12T12:36:54.391Z,2.30
2019-05-12T12:39:23.965Z,2.02
2019-05-12T12:41:59.725Z,1.90
2019-05-12T12:44:24.297Z,2.22
2019-05-12T12:46:59.808Z,3.12
2019-05-12T12:49:25.262Z,2.58
2019-05-12T12:51:54.349Z,2.05
2019-05-12T12:54:23.374Z,2.75
2019-05-12T12:56:53.927Z,3.70
2019-05-12T12:59:24.030Z,2.62
2019-05-12T13:01:59.217Z,2.72
2019-05-12T13:04:28.873Z,5.30
2019-05-12T13:06:57.206Z,3.40
2019-05-12T13:09:26.255Z,2.62
2019-05-12T13:11:55.280Z,1.77
2019-05-12T13:14:28.680Z,1.55
2019-05-12T13:16:56.282Z,3.05
2019-05-12T13:19:25.437Z,2.22
2019-05-12T13:21:54.496Z,2.77
2019-05-12T13:24:23.523Z,2.75
2019-05-12T13:26:54.005Z,2.98
2019-05-12T13:29:26.391Z,2.25
2019-05-12T13:31:53.967Z,1.17
2019-05-12T13:34:23.689Z,1.10
2019-05-12T13:36:54.545Z,2.12
2019-05-12T13:39:24.310Z,1.80
2019-05-12T13:41:56.196Z,1.50
2019-05-12T13:44:24.297Z,0.95
2019-05-12T13:46:58.636Z,2.33
2019-05-12T13:49:24.744Z,2.70
2019-05-12T13:51:53.908Z,3.47
2019-05-12T13:54:26.072Z,3.52
2019-05-12T13:56:55.387Z,3.75
2019-05-12T13:59:25.531Z,5.33
2019-05-12T14:01:54.777Z,2.15
2019-05-12T14:04:27.777Z,3.05
2019-05-12T14:06:54.572Z,2.08
2019-05-12T14:09:23.988Z,4.25
2019-05-12T14:11:53.833Z,2.10
2019-05-12T14:14:23.818Z,2.77
2019-05-12T14:16:59.067Z,2.22
2019-05-12T14:19:24.034Z,2.87
2019-05-12T14:21:54.276Z,4.65
2019-05-12T14:24:24.109Z,1.85
2019-05-12T14:26:54.569Z,1.75
2019-05-12T14:29:26.585Z,1.77
2019-05-12T14:32:02.143Z,2.50
2019-05-12T14:34:26.396Z,2.95
2019-05-12T14:37:04.787Z,3.35
2019-05-12T14:39:26.237Z,2.85
2019-05-12T14:41:55.396Z,3.35
2019-05-12T14:44:25.135Z,2.55
2019-05-12T14:46:57.063Z,2.58
2019-05-12T14:49:29.119Z,2.17
2019-05-12T14:51:56.369Z,3.25
2019-05-12T14:54:25.481Z,3.27
2019-05-12T14:56:57.695Z,2.67
2019-05-12T14:59:30.124Z,3.25
2019-05-12T15:01:59.284Z,2.22
2019-05-12T15:04:29.774Z,4.55
2019-05-12T15:06:59.802Z,3.25
2019-05-12T15:09:29.308Z,3.00
2019-05-12T15:11:58.353Z,3.60
2019-05-12T15:14:32.591Z,2.35
2019-05-12T15:16:58.563Z,1.62
2019-05-12T15:19:29.847Z,3.30
2019-05-12T15:22:01.556Z,1.60
2019-05-12T15:24:29.092Z,1.50
2019-05-12T15:27:00.676Z,4.37
2019-05-12T15:29:30.295Z,1.60
2019-05-12T15:31:59.693Z,2.35
2019-05-12T15:34:28.733Z,3.22
2019-05-12T15:37:00.183Z,1.98
2019-05-12T15:39:28.926Z,1.67
2019-05-12T15:41:58.751Z,2.85
2019-05-12T15:44:31.451Z,2.50
2019-05-12T15:46:59.595Z,2.83
2019-05-12T15:49:28.717Z,3.30
2019-05-12T15:51:58.535Z,3.12
2019-05-12T15:54:30.888Z,3.17
2019-05-12T15:56:58.998Z,2.75
2019-05-12T15:59:28.109Z,2.87
2019-05-12T16:02:09.528Z,2.37
2019-05-12T16:04:28.649Z,1.70
2019-05-12T16:06:58.129Z,3.75
2019-05-12T16:09:27.224Z,3.62
2019-05-12T16:11:56.629Z,2.42
2019-05-12T16:14:30.626Z,3.37
2019-05-12T16:16:56.866Z,3.08
2019-05-12T16:19:26.512Z,2.42
2019-05-12T16:21:56.033Z,4.87
2019-05-12T16:24:27.361Z,1.42
2019-05-12T16:26:56.542Z,2.30
2019-05-12T16:29:25.569Z,3.20
2019-05-12T16:31:55.069Z,2.75
2019-05-12T16:34:24.073Z,5.05
2019-05-12T16:36:54.764Z,2.67
2019-05-12T16:39:24.071Z,2.25
2019-05-12T16:41:54.443Z,2.05
2019-05-12T16:44:26.043Z,2.12
2019-05-12T16:46:54.213Z,2.52
2019-05-12T16:49:32.724Z,7.12
2019-05-12T16:51:54.937Z,3.52
2019-05-12T16:54:24.221Z,3.00
2019-05-12T16:56:53.832Z,1.27
2019-05-12T16:59:24.639Z,3.12
2019-05-12T17:01:54.364Z,2.95
2019-05-12T17:04:23.895Z,1.37
2019-05-12T17:06:53.079Z,2.92
2019-05-12T17:09:24.018Z,2.55
2019-05-12T17:11:55.926Z,3.67
2019-05-12T17:14:28.423Z,2.05
2019-05-12T17:16:56.115Z,2.45
2019-05-12T17:19:25.669Z,1.60
2019-05-12T17:21:59.327Z,2.53
2019-05-12T17:24:25.813Z,3.17
2019-05-12T17:26:55.187Z,2.55
2019-05-12T17:29:24.452Z,3.22
2019-05-12T17:31:53.669Z,3.73
2019-05-12T17:34:25.688Z,5.13
2019-05-12T17:36:56.152Z,3.08
2019-05-12T17:39:29.457Z,2.25
2019-05-12T17:41:55.248Z,2.40
2019-05-12T17:44:24.521Z,2.67
2019-05-12T17:46:54.126Z,2.20
2019-05-12T17:49:30.333Z,1.47
2019-05-12T17:51:57.158Z,3.70
2019-05-12T17:54:26.510Z,2.40
2019-05-12T17:56:56.808Z,3.33
2019-05-12T17:59:29.260Z,2.77
2019-05-12T18:01:57.647Z,2.10
2019-05-12T18:04:30.609Z,2.27
2019-05-12T18:06:57.971Z,1.00
2019-05-12T18:09:30.482Z,4.37
2019-05-12T18:11:58.795Z,4.33
2019-05-12T18:14:28.064Z,4.20
2019-05-12T18:17:02.382Z,4.20
2019-05-12T18:19:27.973Z,2.23
2019-05-12T18:22:03.211Z,4.33
2019-05-12T18:24:28.223Z,3.67
2019-05-12T18:27:04.039Z,3.10
2019-05-12T18:29:28.448Z,1.97
2019-05-12T18:31:58.011Z,4.90
2019-05-12T18:34:27.056Z,4.57
2019-05-12T18:36:59.610Z,3.20
2019-05-12T18:39:26.860Z,1.47
2019-05-12T18:41:55.944Z,1.93
2019-05-12T18:44:31.317Z,3.23
2019-05-12T18:46:56.059Z,3.63
2019-05-12T18:49:25.119Z,3.37
2019-05-12T18:51:55.176Z,3.33
2019-05-12T18:54:24.917Z,6.40
2019-05-12T18:57:02.127Z,3.80
2019-05-12T18:59:28.050Z,3.93
2019-05-12T19:01:56.143Z,1.43
2019-05-12T19:04:25.169Z,2.00
2019-05-12T19:06:54.364Z,4.13
2019-05-12T19:09:26.191Z,1.67
2019-05-12T19:11:55.223Z,1.80
2019-05-12T19:14:35.279Z,4.23
2019-05-12T19:16:56.062Z,4.93
2019-05-12T19:19:25.532Z,4.63
2019-05-12T19:22:05.261Z,3.00
2019-05-12T19:24:25.325Z,6.70
2019-05-12T19:26:54.702Z,4.47
2019-05-12T19:29:24.513Z,4.10
2019-05-12T19:31:57.783Z,4.00
2019-05-12T19:34:26.156Z,4.83
2019-05-12T19:36:55.960Z,4.93
2019-05-12T19:39:25.495Z,1.97
2019-05-12T19:41:54.693Z,3.07
2019-05-12T19:44:26.304Z,4.27
2019-05-12T19:46:54.502Z,4.60
2019-05-12T19:49:25.969Z,3.63
2019-05-12T19:51:54.929Z,6.47
2019-05-12T19:54:28.007Z,4.73
2019-05-12T19:56:54.963Z,5.00
2019-05-12T19:59:24.387Z,3.33
2019-05-12T20:01:53.731Z,5.23
2019-05-12T20:04:30.843Z,19.47
2019-05-12T20:06:54.480Z,29.40
2019-05-12T20:09:24.468Z,13.30
2019-05-12T20:11:53.876Z,10.40
2019-05-12T20:14:24.039Z,3.87
2019-05-12T20:16:54.393Z,6.17
2019-05-12T20:19:25.259Z,5.10
2019-05-12T20:21:54.802Z,8.10
2019-05-12T20:24:24.849Z,5.67
2019-05-12T20:26:54.205Z,4.80
2019-05-12T20:29:26.492Z,8.77
2019-05-12T20:31:54.026Z,3.60
2019-05-12T20:34:24.459Z,5.53
2019-05-12T20:36:59.182Z,2.53
2019-05-12T20:39:26.108Z,3.03
2019-05-12T20:42:00.906Z,2.30
2019-05-12T20:44:26.981Z,4.77
2019-05-12T20:47:01.341Z,5.10
2019-05-12T20:49:26.811Z,16.67
2019-05-12T20:52:04.045Z,11.30
2019-05-12T20:54:26.670Z,8.73
2019-05-12T20:57:02.318Z,16.53
2019-05-12T20:59:28.203Z,25.90
2019-05-12T21:01:57.777Z,14.73
2019-05-12T21:04:31.921Z,10.53
2019-05-12T21:06:57.988Z,14.37
2019-05-12T21:09:27.048Z,7.53
2019-05-12T21:11:56.274Z,4.90
2019-05-12T21:14:25.314Z,4.97
2019-05-12T21:16:54.321Z,6.53
2019-05-12T21:19:24.411Z,6.73
2019-05-12T21:21:55.042Z,13.43
2019-05-12T21:24:24.502Z,13.70
2019-05-12T21:26:54.737Z,10.30
2019-05-12T21:29:25.465Z,6.43
2019-05-12T21:31:56.311Z,9.13
2019-05-12T21:34:25.697Z,6.77
2019-05-12T21:36:58.945Z,5.17
2019-05-12T21:39:25.836Z,6.33
2019-05-12T21:41:55.189Z,7.80
2019-05-12T21:44:24.882Z,5.67
2019-05-12T21:47:03.776Z,7.23
2019-05-12T21:49:25.322Z,3.40
2019-05-12T21:51:59.060Z,3.60
2019-05-12T21:54:29.658Z,8.53
2019-05-12T21:56:56.103Z,4.83
2019-05-12T21:59:28.911Z,5.63
2019-05-12T22:01:56.316Z,5.47
2019-05-12T22:04:25.345Z,6.20
2019-05-12T22:06:56.796Z,5.17
2019-05-12T22:09:25.861Z,5.73
2019-05-12T22:11:56.361Z,8.13
2019-05-12T22:14:30.298Z,3.73
2019-05-12T22:16:58.905Z,5.97
2019-05-12T22:19:30.945Z,6.97
2019-05-12T22:22:00.972Z,6.00
2019-05-12T22:24:34.582Z,5.47
2019-05-12T22:27:02.767Z,4.40
2019-05-12T22:29:31.487Z,5.77
2019-05-12T22:32:00.542Z,3.63
2019-05-12T22:34:37.054Z,7.30
2019-05-12T22:37:00.770Z,5.63
2019-05-12T22:39:33.811Z,7.60
2019-05-12T22:42:00.582Z,5.47
2019-05-12T22:44:29.628Z,5.23
2019-05-12T22:47:04.182Z,6.80
2019-05-12T22:49:29.512Z,8.37
2019-05-12T22:52:02.715Z,5.47
2019-05-12T22:54:29.984Z,4.50
2019-05-12T22:56:58.974Z,5.60
2019-05-12T22:59:31.998Z,6.20
2019-05-12T23:01:58.764Z,4.30
2019-05-12T23:04:35.523Z,4.43
2019-05-12T23:06:58.897Z,4.97
2019-05-12T23:09:30.072Z,5.33
2019-05-12T23:11:58.642Z,5.27
2019-05-12T23:14:27.670Z,5.53
2019-05-12T23:17:00.154Z,4.47
2019-05-12T23:19:27.726Z,4.03
2019-05-12T23:21:58.996Z,4.87
2019-05-12T23:24:30.298Z,5.10
2019-05-12T23:26:58.968Z,4.60
2019-05-12T23:29:31.022Z,8.20
2019-05-12T23:32:00.665Z,7.17
2019-05-12T23:34:29.440Z,5.13
2019-05-12T23:37:00.176Z,6.97
2019-05-12T23:39:32.409Z,6.07
2019-05-12T23:42:00.530Z,5.33
2019-05-12T23:44:29.571Z,5.40
2019-05-12T23:46:58.586Z,5.50
2019-05-12T23:49:27.623Z,4.80
2019-05-12T23:51:56.645Z,4.77
2019-05-12T23:54:25.636Z,8.17
2019-05-12T23:56:54.681Z,5.50
2019-05-12T23:59:24.481Z,6.93
